Time;durP1;ratioP1;P1;durP2;ratioP2;P2;SDS_P1;SDS_P2;PMS_P1;PMS_P2;Temp;Humidity;BMP_temperature;BMP_pressure;BME280_temperature;BME280_humidity;BME280_pressure;Samples;Min_cycle;Max_cycle;Signal;HPM_P1;HPM_P2
2023/09/16 00:02:05;;;;;;;12.05;8.75;;;;;;;;;;4993487;28;20284;-70
2023/09/16 00:04:30;;;;;;;14.98;9.43;;;;;;;;;;5006928;28;20259;-69
2023/09/16 00:06:56;;;;;;;12.20;9.20;;;;;;;;;;5011165;28;20198;-69
2023/09/16 00:09:22;;;;;;;10.82;8.90;;;;;;;;;;5009546;28;20226;-69
2023/09/16 00:11:47;;;;;;;17.63;9.73;;;;;;;;;;5011977;28;20167;-69
2023/09/16 00:14:12;;;;;;;11.07;7.90;;;;;;;;;;5009611;28;20235;-69
2023/09/16 00:16:37;;;;;;;10.48;8.02;;;;;;;;;;5010286;28;20211;-69
2023/09/16 00:19:03;;;;;;;10.25;8.20;;;;;;;;;;5006430;28;20183;-69
2023/09/16 00:21:28;;;;;;;12.82;8.20;;;;;;;;;;5010007;28;20182;-70
2023/09/16 00:23:53;;;;;;;10.60;8.05;;;;;;;;;;5010047;28;20195;-69
2023/09/16 00:26:18;;;;;;;11.30;8.00;;;;;;;;;;5010639;28;20202;-70
2023/09/16 00:28:44;;;;;;;14.98;8.73;;;;;;;;;;5010441;28;20171;-69
2023/09/16 00:31:11;;;;;;;14.40;9.27;;;;;;;;;;5010044;28;20183;-70
2023/09/16 00:33:36;;;;;;;16.67;10.27;;;;;;;;;;5004667;28;20547;-70
2023/09/16 00:36:02;;;;;;;11.68;8.30;;;;;;;;;;5006911;28;20185;-69
2023/09/16 00:38:27;;;;;;;11.68;9.60;;;;;;;;;;5008151;28;20845;-70
2023/09/16 00:40:52;;;;;;;10.35;8.93;;;;;;;;;;5000387;28;20548;-69
2023/09/16 00:43:18;;;;;;;11.35;8.45;;;;;;;;;;5005648;28;20715;-69
2023/09/16 00:45:43;;;;;;;13.95;9.95;;;;;;;;;;5011224;28;20174;-69
2023/09/16 00:48:09;;;;;;;11.57;7.82;;;;;;;;;;5006949;28;20213;-70
2023/09/16 00:50:35;;;;;;;14.27;9.27;;;;;;;;;;5011918;28;20187;-70
2023/09/16 00:53:00;;;;;;;9.65;7.72;;;;;;;;;;5010769;28;20214;-70
2023/09/16 00:55:26;;;;;;;12.65;8.30;;;;;;;;;;5010751;28;20186;-70
2023/09/16 00:57:53;;;;;;;13.80;9.40;;;;;;;;;;5013239;28;20179;-70
2023/09/16 01:00:19;;;;;;;10.90;7.45;;;;;;;;;;5013198;28;21760;-69
2023/09/16 01:02:44;;;;;;;10.27;8.43;;;;;;;;;;5013168;28;20265;-70
2023/09/16 01:05:15;;;;;;;11.80;9.10;;;;;;;;;;5012097;28;20569;-69
2023/09/16 01:07:41;;;;;;;13.52;8.55;;;;;;;;;;5013597;28;20581;-70
2023/09/16 01:10:07;;;;;;;12.25;8.77;;;;;;;;;;5009716;28;20189;-69
2023/09/16 01:12:33;;;;;;;11.98;8.55;;;;;;;;;;5012906;28;20608;-70
2023/09/16 01:14:58;;;;;;;11.80;9.25;;;;;;;;;;5009888;28;20213;-69
2023/09/16 01:17:32;;;;;;;15.88;8.55;;;;;;;;;;5006169;28;20195;-69
2023/09/16 01:20:10;;;;;;;12.77;9.23;;;;;;;;;;5008440;28;20206;-70
2023/09/16 01:22:37;;;;;;;12.32;9.02;;;;;;;;;;5011331;28;20205;-70
2023/09/16 01:25:06;;;;;;;10.75;8.30;;;;;;;;;;5013432;28;20221;-70
2023/09/16 01:27:31;;;;;;;14.00;9.43;;;;;;;;;;5011835;28;20554;-70
2023/09/16 01:29:57;;;;;;;15.60;9.48;;;;;;;;;;5012398;28;20258;-70
2023/09/16 01:32:27;;;;;;;11.40;9.18;;;;;;;;;;5004675;28;20186;-70
2023/09/16 01:34:53;;;;;;;14.63;8.85;;;;;;;;;;5009890;28;20207;-70
2023/09/16 01:37:19;;;;;;;14.38;9.25;;;;;;;;;;5004795;28;20183;-70
2023/09/16 01:39:46;;;;;;;12.32;9.40;;;;;;;;;;5009326;28;20250;-70
2023/09/16 01:42:12;;;;;;;12.00;8.93;;;;;;;;;;5007104;28;20184;-70
2023/09/16 01:44:37;;;;;;;15.70;9.45;;;;;;;;;;5011911;28;20199;-70
2023/09/16 01:47:02;;;;;;;13.68;8.73;;;;;;;;;;5010733;28;20198;-70
2023/09/16 01:49:28;;;;;;;10.70;8.60;;;;;;;;;;5012417;28;20179;-70
2023/09/16 01:51:53;;;;;;;16.55;9.02;;;;;;;;;;5004434;28;20171;-70
2023/09/16 01:54:18;;;;;;;12.88;8.88;;;;;;;;;;5003922;28;20206;-71
2023/09/16 01:56:44;;;;;;;12.88;9.55;;;;;;;;;;5011386;28;20244;-71
2023/09/16 01:59:09;;;;;;;15.18;10.77;;;;;;;;;;5013711;28;20183;-70
2023/09/16 02:01:35;;;;;;;14.35;9.65;;;;;;;;;;5010637;28;20381;-71
2023/09/16 02:04:00;;;;;;;10.10;8.98;;;;;;;;;;5010391;28;20252;-70
2023/09/16 02:06:25;;;;;;;13.48;8.98;;;;;;;;;;5010817;28;20194;-71
2023/09/16 02:08:50;;;;;;;10.13;8.45;;;;;;;;;;5005444;28;20195;-71
2023/09/16 02:11:15;;;;;;;13.45;8.93;;;;;;;;;;5009330;28;20199;-70
2023/09/16 02:13:41;;;;;;;14.52;9.65;;;;;;;;;;5012285;28;20222;-70
2023/09/16 02:16:06;;;;;;;12.27;9.57;;;;;;;;;;5012036;28;20233;-70
2023/09/16 02:18:31;;;;;;;10.95;8.68;;;;;;;;;;5012800;28;20237;-71
2023/09/16 02:20:56;;;;;;;16.08;10.48;;;;;;;;;;5007973;28;20612;-70
2023/09/16 02:23:22;;;;;;;12.23;8.82;;;;;;;;;;5009899;28;20202;-70
2023/09/16 02:25:47;;;;;;;10.68;9.25;;;;;;;;;;5008417;28;20269;-71
2023/09/16 02:28:12;;;;;;;13.13;10.00;;;;;;;;;;5011114;28;20257;-70
2023/09/16 02:30:37;;;;;;;13.73;10.05;;;;;;;;;;5008632;28;20188;-70
2023/09/16 02:33:03;;;;;;;12.43;9.52;;;;;;;;;;5007483;28;20309;-70
2023/09/16 02:35:28;;;;;;;10.93;9.18;;;;;;;;;;5004466;28;20326;-70
2023/09/16 02:37:53;;;;;;;13.20;10.35;;;;;;;;;;5009827;28;20179;-70
2023/09/16 02:40:19;;;;;;;16.17;10.23;;;;;;;;;;5003560;28;20237;-70
2023/09/16 02:42:44;;;;;;;17.67;9.70;;;;;;;;;;5003223;28;20238;-70
2023/09/16 02:45:10;;;;;;;12.65;8.73;;;;;;;;;;5008344;28;20221;-70
2023/09/16 02:47:35;;;;;;;13.40;9.13;;;;;;;;;;5006473;28;20199;-70
2023/09/16 02:50:00;;;;;;;12.80;9.50;;;;;;;;;;5006045;28;20179;-70
2023/09/16 02:52:26;;;;;;;15.35;10.18;;;;;;;;;;4997247;28;20183;-70
2023/09/16 02:54:51;;;;;;;14.32;9.50;;;;;;;;;;5010478;28;20248;-70
2023/09/16 02:57:16;;;;;;;11.57;8.70;;;;;;;;;;5010312;28;20266;-70
2023/09/16 02:59:41;;;;;;;12.52;9.23;;;;;;;;;;5007151;28;20175;-70
2023/09/16 03:02:07;;;;;;;17.60;10.60;;;;;;;;;;5024288;28;20671;-70
2023/09/16 03:04:32;;;;;;;13.15;9.80;;;;;;;;;;5009831;28;20716;-70
2023/09/16 03:06:57;;;;;;;12.90;9.63;;;;;;;;;;5008062;28;20212;-70
2023/09/16 03:09:22;;;;;;;13.88;11.32;;;;;;;;;;5010109;28;20179;-70
2023/09/16 03:11:47;;;;;;;10.50;8.82;;;;;;;;;;5010863;28;20179;-70
2023/09/16 03:14:13;;;;;;;13.02;10.48;;;;;;;;;;5009440;28;20751;-70
2023/09/16 03:16:38;;;;;;;10.88;8.82;;;;;;;;;;5006460;28;20184;-70
2023/09/16 03:19:03;;;;;;;12.75;10.20;;;;;;;;;;5003923;28;20636;-70
2023/09/16 03:21:28;;;;;;;14.52;11.57;;;;;;;;;;5012500;28;20254;-71
2023/09/16 03:23:54;;;;;;;14.70;10.77;;;;;;;;;;5008536;28;20202;-70
2023/09/16 03:26:19;;;;;;;15.93;11.30;;;;;;;;;;4998436;28;20647;-70
2023/09/16 03:28:47;;;;;;;13.93;10.77;;;;;;;;;;5009471;28;20171;-69
2023/09/16 03:31:13;;;;;;;14.27;9.95;;;;;;;;;;5009103;28;20190;-69
2023/09/16 03:33:38;;;;;;;15.38;11.18;;;;;;;;;;5009562;28;20202;-70
2023/09/16 03:36:04;;;;;;;15.05;12.20;;;;;;;;;;5001716;28;20682;-70
2023/09/16 03:38:30;;;;;;;17.48;11.07;;;;;;;;;;5004722;28;20187;-69
2023/09/16 03:40:56;;;;;;;16.20;11.65;;;;;;;;;;5009148;28;20277;-69
2023/09/16 03:43:21;;;;;;;19.77;12.13;;;;;;;;;;5005745;28;20693;-69
2023/09/16 03:45:46;;;;;;;13.43;10.70;;;;;;;;;;5006505;28;20270;-69
2023/09/16 03:48:12;;;;;;;15.70;12.68;;;;;;;;;;5009844;28;20219;-69
2023/09/16 03:50:37;;;;;;;16.88;12.23;;;;;;;;;;5010803;28;20823;-69
2023/09/16 03:53:02;;;;;;;16.23;11.82;;;;;;;;;;5005363;28;20212;-70
2023/09/16 03:55:27;;;;;;;17.70;13.43;;;;;;;;;;5008684;28;20454;-70
2023/09/16 03:57:53;;;;;;;16.35;12.30;;;;;;;;;;5008836;28;20596;-69
2023/09/16 04:00:18;;;;;;;15.20;12.25;;;;;;;;;;5010454;28;20185;-69
2023/09/16 04:02:43;;;;;;;17.58;12.80;;;;;;;;;;5008590;28;20266;-69
2023/09/16 04:05:09;;;;;;;15.90;11.23;;;;;;;;;;5003776;28;20553;-69
2023/09/16 04:07:34;;;;;;;16.40;12.82;;;;;;;;;;5006858;28;20217;-69
2023/09/16 04:09:59;;;;;;;18.63;12.70;;;;;;;;;;5010505;28;20221;-70
2023/09/16 04:12:25;;;;;;;15.45;11.85;;;;;;;;;;5009590;28;20182;-70
2023/09/16 04:14:50;;;;;;;14.93;11.15;;;;;;;;;;5002825;28;20203;-69
2023/09/16 04:17:15;;;;;;;18.25;12.32;;;;;;;;;;5004992;28;20179;-69
2023/09/16 04:19:40;;;;;;;16.33;12.57;;;;;;;;;;5008877;28;20179;-69
2023/09/16 04:22:06;;;;;;;15.73;11.50;;;;;;;;;;5005564;28;20183;-70
2023/09/16 04:24:31;;;;;;;16.35;11.55;;;;;;;;;;5005770;28;20195;-70
2023/09/16 04:26:56;;;;;;;19.25;12.20;;;;;;;;;;5000345;28;20203;-70
2023/09/16 04:29:21;;;;;;;17.48;11.63;;;;;;;;;;5007551;28;20183;-70
2023/09/16 04:31:46;;;;;;;16.98;12.68;;;;;;;;;;5009980;28;20171;-70
2023/09/16 04:34:12;;;;;;;13.95;11.27;;;;;;;;;;5003890;28;20820;-70
2023/09/16 04:36:39;;;;;;;16.45;12.18;;;;;;;;;;5005160;28;20174;-70
2023/09/16 04:39:04;;;;;;;15.93;12.52;;;;;;;;;;5010374;28;20179;-70
2023/09/16 04:41:29;;;;;;;18.00;12.95;;;;;;;;;;5004568;28;20190;-70
2023/09/16 04:43:54;;;;;;;17.85;13.05;;;;;;;;;;5000794;28;20318;-70
2023/09/16 04:46:20;;;;;;;18.40;12.85;;;;;;;;;;5005345;28;20334;-70
2023/09/16 04:48:46;;;;;;;15.77;12.63;;;;;;;;;;5010517;28;20203;-70
2023/09/16 04:51:11;;;;;;;15.38;12.05;;;;;;;;;;5007569;28;20185;-70
2023/09/16 04:53:36;;;;;;;20.20;14.63;;;;;;;;;;5000320;28;20554;-70
2023/09/16 04:56:02;;;;;;;16.27;12.63;;;;;;;;;;4998054;28;20179;-70
2023/09/16 04:58:27;;;;;;;18.48;12.20;;;;;;;;;;4999976;28;20179;-70
2023/09/16 05:00:53;;;;;;;15.20;11.35;;;;;;;;;;5009627;28;20669;-70
2023/09/16 05:03:18;;;;;;;17.55;12.90;;;;;;;;;;5011015;28;20297;-70
2023/09/16 05:05:45;;;;;;;15.82;11.98;;;;;;;;;;5008462;28;20265;-70
2023/09/16 05:08:11;;;;;;;20.50;13.73;;;;;;;;;;5012182;28;20207;-70
2023/09/16 05:10:36;;;;;;;16.65;12.43;;;;;;;;;;5011927;28;20229;-70
2023/09/16 05:13:01;;;;;;;17.58;13.55;;;;;;;;;;5010732;28;20682;-70
2023/09/16 05:15:27;;;;;;;15.75;12.95;;;;;;;;;;5007549;28;20194;-70
2023/09/16 05:17:52;;;;;;;18.20;13.13;;;;;;;;;;5003118;28;20265;-70
2023/09/16 05:20:17;;;;;;;18.55;12.18;;;;;;;;;;5002910;28;20195;-70
2023/09/16 05:22:45;;;;;;;15.82;12.65;;;;;;;;;;5002067;28;20187;-69
2023/09/16 05:25:11;;;;;;;17.70;13.88;;;;;;;;;;5002872;28;20213;-70
2023/09/16 05:27:36;;;;;;;20.17;13.75;;;;;;;;;;5004150;28;20589;-70
2023/09/16 05:30:01;;;;;;;21.60;13.55;;;;;;;;;;5010010;28;20289;-70
2023/09/16 05:32:27;;;;;;;16.75;13.13;;;;;;;;;;5001088;28;20179;-70
2023/09/16 05:34:52;;;;;;;25.70;14.02;;;;;;;;;;5008210;28;20199;-70
2023/09/16 05:37:17;;;;;;;18.73;14.07;;;;;;;;;;5007429;28;20223;-70
2023/09/16 05:39:42;;;;;;;17.90;14.23;;;;;;;;;;5003923;28;20685;-70
2023/09/16 05:42:08;;;;;;;18.77;14.50;;;;;;;;;;5007107;28;20175;-70
2023/09/16 05:44:33;;;;;;;20.63;14.38;;;;;;;;;;5013429;28;20198;-69
2023/09/16 05:46:58;;;;;;;23.65;15.85;;;;;;;;;;5005868;28;20219;-69
2023/09/16 05:49:24;;;;;;;23.58;15.63;;;;;;;;;;5011431;28;20179;-70
2023/09/16 05:51:49;;;;;;;19.73;14.15;;;;;;;;;;5005829;28;20642;-70
2023/09/16 05:54:16;;;;;;;19.88;13.65;;;;;;;;;;5006938;28;21298;-70
2023/09/16 05:56:42;;;;;;;18.10;14.23;;;;;;;;;;5009392;28;20245;-70
2023/09/16 05:59:07;;;;;;;20.77;15.90;;;;;;;;;;5012166;28;20766;-70
2023/09/16 06:01:33;;;;;;;18.13;14.15;;;;;;;;;;5005868;28;20258;-69
2023/09/16 06:03:58;;;;;;;23.95;15.95;;;;;;;;;;5009291;28;20217;-69
2023/09/16 06:06:23;;;;;;;20.90;15.23;;;;;;;;;;5011977;28;20175;-70
2023/09/16 06:08:48;;;;;;;20.52;14.88;;;;;;;;;;5006252;28;20217;-69
2023/09/16 06:11:14;;;;;;;20.30;15.88;;;;;;;;;;5003741;28;20588;-70
2023/09/16 06:13:39;;;;;;;17.08;14.30;;;;;;;;;;5007294;28;20752;-69
2023/09/16 06:16:06;;;;;;;22.77;17.00;;;;;;;;;;5013742;28;20242;-69
2023/09/16 06:18:32;;;;;;;22.50;15.85;;;;;;;;;;5013492;28;20693;-69
2023/09/16 06:20:57;;;;;;;21.55;17.27;;;;;;;;;;5008309;28;20190;-70
2023/09/16 06:23:23;;;;;;;20.85;15.38;;;;;;;;;;5001822;28;20288;-70
2023/09/16 06:25:48;;;;;;;21.83;16.25;;;;;;;;;;5012700;28;20186;-70
2023/09/16 06:28:13;;;;;;;18.08;14.68;;;;;;;;;;5014081;28;20642;-70
2023/09/16 06:30:38;;;;;;;19.02;13.02;;;;;;;;;;5005829;28;20190;-70
2023/09/16 06:33:04;;;;;;;18.27;14.05;;;;;;;;;;4992921;28;20278;-70
2023/09/16 06:35:29;;;;;;;19.48;14.25;;;;;;;;;;5009039;28;20728;-70
2023/09/16 06:37:54;;;;;;;20.70;14.50;;;;;;;;;;5012190;28;20202;-70
2023/09/16 06:40:20;;;;;;;19.20;14.88;;;;;;;;;;5008460;28;20646;-70
2023/09/16 06:42:45;;;;;;;16.73;14.13;;;;;;;;;;5010168;28;20215;-70
2023/09/16 06:45:12;;;;;;;17.90;14.38;;;;;;;;;;5005077;28;20242;-71
2023/09/16 06:47:37;;;;;;;16.58;12.95;;;;;;;;;;5015085;28;20779;-71
2023/09/16 06:50:02;;;;;;;18.05;13.82;;;;;;;;;;5009880;28;20179;-70
2023/09/16 06:52:28;;;;;;;17.23;12.80;;;;;;;;;;5008010;28;20182;-71
2023/09/16 06:54:53;;;;;;;17.38;13.20;;;;;;;;;;5002573;28;20199;-69
2023/09/16 06:57:18;;;;;;;15.05;11.93;;;;;;;;;;5008891;28;20351;-71
2023/09/16 06:59:47;;;;;;;16.65;11.15;;;;;;;;;;5013063;28;20590;-71
2023/09/16 07:02:13;;;;;;;17.23;12.45;;;;;;;;;;5003600;28;20186;-71
2023/09/16 07:04:40;;;;;;;16.10;11.93;;;;;;;;;;5005444;28;20229;-70
2023/09/16 07:07:05;;;;;;;13.80;12.00;;;;;;;;;;5007711;28;20670;-70
2023/09/16 07:09:31;;;;;;;17.17;11.73;;;;;;;;;;4998056;28;20191;-70
2023/09/16 07:11:56;;;;;;;12.80;10.50;;;;;;;;;;5011885;28;20193;-69
2023/09/16 07:14:21;;;;;;;17.42;11.40;;;;;;;;;;5004535;28;20299;-71
2023/09/16 07:16:46;;;;;;;16.58;10.55;;;;;;;;;;5009107;28;20611;-70
2023/09/16 07:19:11;;;;;;;18.60;11.18;;;;;;;;;;5006394;28;20215;-70
2023/09/16 07:21:37;;;;;;;12.73;10.10;;;;;;;;;;5012752;28;20180;-70
2023/09/16 07:24:02;;;;;;;17.45;12.13;;;;;;;;;;5010827;28;20689;-70
2023/09/16 07:26:28;;;;;;;13.10;10.18;;;;;;;;;;5005702;28;20194;-70
2023/09/16 07:28:53;;;;;;;14.32;11.15;;;;;;;;;;5000869;28;20178;-70
2023/09/16 07:31:18;;;;;;;11.73;10.43;;;;;;;;;;5010726;28;20187;-70
2023/09/16 07:33:45;;;;;;;14.30;11.18;;;;;;;;;;5005007;28;20204;-70
2023/09/16 07:36:10;;;;;;;14.15;10.20;;;;;;;;;;5004317;28;20370;-70
2023/09/16 07:38:35;;;;;;;11.40;9.85;;;;;;;;;;5007368;28;20747;-71
2023/09/16 07:41:00;;;;;;;12.68;10.40;;;;;;;;;;5005195;28;20183;-70
2023/09/16 07:43:26;;;;;;;12.90;9.85;;;;;;;;;;5007236;28;20210;-70
2023/09/16 07:45:51;;;;;;;10.55;8.90;;;;;;;;;;5001881;28;20240;-70
2023/09/16 07:48:17;;;;;;;12.18;9.65;;;;;;;;;;5009883;28;20311;-69
2023/09/16 07:50:42;;;;;;;9.82;8.25;;;;;;;;;;5012726;28;20567;-70
2023/09/16 07:53:07;;;;;;;13.43;9.50;;;;;;;;;;5012217;28;20277;-70
2023/09/16 07:55:33;;;;;;;10.02;8.13;;;;;;;;;;5012087;28;20179;-70
2023/09/16 07:57:58;;;;;;;12.77;9.45;;;;;;;;;;5007495;28;20258;-70
2023/09/16 08:00:23;;;;;;;13.48;8.75;;;;;;;;;;5005978;28;20643;-69
2023/09/16 08:02:48;;;;;;;14.05;9.88;;;;;;;;;;5005795;28;20179;-71
2023/09/16 08:05:13;;;;;;;9.82;7.88;;;;;;;;;;5015456;23;20234;-65
2023/09/16 08:07:39;;;;;;;12.23;8.68;;;;;;;;;;5003679;28;20215;-67
2023/09/16 08:10:04;;;;;;;9.57;8.17;;;;;;;;;;5008111;28;20190;-66
2023/09/16 08:12:29;;;;;;;9.50;7.85;;;;;;;;;;5002798;28;20842;-66
2023/09/16 08:14:54;;;;;;;9.27;7.82;;;;;;;;;;5008640;28;20678;-67
2023/09/16 08:17:20;;;;;;;7.40;6.50;;;;;;;;;;5010479;28;20873;-66
2023/09/16 08:19:45;;;;;;;9.30;7.28;;;;;;;;;;5011266;28;20257;-67
2023/09/16 08:22:10;;;;;;;8.90;7.77;;;;;;;;;;5010891;28;20179;-66
2023/09/16 08:24:35;;;;;;;10.82;8.20;;;;;;;;;;5009986;28;20447;-66
2023/09/16 08:27:01;;;;;;;10.67;7.50;;;;;;;;;;5004227;28;20564;-67
2023/09/16 08:29:26;;;;;;;10.27;8.18;;;;;;;;;;5011422;28;20903;-67
2023/09/16 08:31:51;;;;;;;9.52;7.70;;;;;;;;;;5006169;28;20174;-67
2023/09/16 08:34:17;;;;;;;7.90;6.95;;;;;;;;;;5008905;28;20202;-67
2023/09/16 08:36:42;;;;;;;8.48;7.32;;;;;;;;;;5008837;28;20175;-66
2023/09/16 08:39:07;;;;;;;9.25;7.53;;;;;;;;;;5013076;28;20195;-66
2023/09/16 08:41:39;;;;;;;11.23;8.20;;;;;;;;;;5009846;28;20306;-66
2023/09/16 08:44:05;;;;;;;6.95;6.25;;;;;;;;;;5024235;28;20210;-65
2023/09/16 08:46:32;;;;;;;10.73;7.57;;;;;;;;;;5003360;28;20556;-65
2023/09/16 08:48:59;;;;;;;9.52;6.53;;;;;;;;;;5005757;28;20653;-65
2023/09/16 08:51:24;;;;;;;10.95;7.95;;;;;;;;;;5008552;28;20171;-66
2023/09/16 08:53:52;;;;;;;9.07;7.35;;;;;;;;;;5003381;28;20305;-65
2023/09/16 08:56:17;;;;;;;8.77;6.55;;;;;;;;;;5007774;28;20673;-65
2023/09/16 08:58:44;;;;;;;8.02;6.78;;;;;;;;;;5010382;28;20195;-66
2023/09/16 09:01:09;;;;;;;7.70;6.25;;;;;;;;;;5007457;28;20193;-66
2023/09/16 09:03:35;;;;;;;7.43;5.88;;;;;;;;;;5007641;28;20228;-66
2023/09/16 09:06:00;;;;;;;9.48;6.18;;;;;;;;;;5010696;28;20558;-66
2023/09/16 09:08:25;;;;;;;6.63;5.32;;;;;;;;;;5008654;28;20260;-66
2023/09/16 09:10:51;;;;;;;6.80;4.93;;;;;;;;;;5007031;28;20182;-65
2023/09/16 09:13:16;;;;;;;6.22;5.55;;;;;;;;;;5009834;28;20197;-66
2023/09/16 09:15:42;;;;;;;5.28;4.30;;;;;;;;;;5010465;28;20185;-66
2023/09/16 09:18:07;;;;;;;5.68;4.57;;;;;;;;;;5013467;28;20225;-65
2023/09/16 09:20:33;;;;;;;5.63;4.18;;;;;;;;;;5011881;28;20555;-65
2023/09/16 09:22:59;;;;;;;4.47;3.95;;;;;;;;;;5012833;28;20195;-65
2023/09/16 09:25:28;;;;;;;6.25;4.65;;;;;;;;;;5011546;28;20195;-66
2023/09/16 09:27:54;;;;;;;8.15;5.10;;;;;;;;;;5007122;28;20214;-66
2023/09/16 09:30:24;;;;;;;5.75;4.55;;;;;;;;;;5008745;28;20191;-67
2023/09/16 09:32:49;;;;;;;10.70;5.18;;;;;;;;;;5012447;28;20665;-66
2023/09/16 09:35:15;;;;;;;6.53;4.78;;;;;;;;;;5007971;28;20199;-66
2023/09/16 09:37:40;;;;;;;7.93;5.38;;;;;;;;;;5011556;28;20659;-65
2023/09/16 09:40:09;;;;;;;5.25;4.55;;;;;;;;;;5011815;28;20567;-67
2023/09/16 09:42:40;;;;;;;7.88;5.22;;;;;;;;;;5010897;28;20179;-68
2023/09/16 09:45:05;;;;;;;7.20;4.90;;;;;;;;;;5014942;28;20251;-68
2023/09/16 09:47:31;;;;;;;6.25;4.88;;;;;;;;;;5010047;28;20608;-68
2023/09/16 09:49:57;;;;;;;6.20;4.40;;;;;;;;;;5012136;28;20815;-69
2023/09/16 09:52:22;;;;;;;6.38;4.93;;;;;;;;;;5012467;28;20567;-67
2023/09/16 09:54:50;;;;;;;6.90;4.82;;;;;;;;;;5008587;28;20206;-68
2023/09/16 09:57:16;;;;;;;4.53;4.07;;;;;;;;;;5013046;28;20756;-68
2023/09/16 09:59:41;;;;;;;5.03;3.97;;;;;;;;;;5013144;28;20191;-67
2023/09/16 10:02:06;;;;;;;6.93;4.55;;;;;;;;;;5011178;28;20210;-68
2023/09/16 10:04:31;;;;;;;6.13;3.58;;;;;;;;;;5005602;28;20724;-68
2023/09/16 10:07:00;;;;;;;4.00;3.30;;;;;;;;;;5006802;28;20186;-68
2023/09/16 10:09:25;;;;;;;7.95;4.00;;;;;;;;;;5016149;28;20577;-68
2023/09/16 10:11:50;;;;;;;6.67;4.13;;;;;;;;;;5008726;28;20190;-68
2023/09/16 10:14:16;;;;;;;4.82;3.92;;;;;;;;;;5006015;28;20456;-68
2023/09/16 10:16:42;;;;;;;3.88;3.28;;;;;;;;;;5011426;28;20187;-69
2023/09/16 10:19:08;;;;;;;11.43;3.78;;;;;;;;;;5010994;28;20182;-68
2023/09/16 10:21:35;;;;;;;4.13;3.00;;;;;;;;;;5012083;28;20175;-69
2023/09/16 10:24:00;;;;;;;4.15;2.95;;;;;;;;;;5012208;28;20214;-69
2023/09/16 10:26:26;;;;;;;3.10;2.30;;;;;;;;;;5011888;28;20179;-69
2023/09/16 10:28:52;;;;;;;6.03;2.97;;;;;;;;;;5012711;28;20179;-67
2023/09/16 10:31:18;;;;;;;5.43;2.92;;;;;;;;;;5012728;28;20409;-69
2023/09/16 10:33:43;;;;;;;7.15;3.00;;;;;;;;;;4999102;28;24074;-69
2023/09/16 10:36:09;;;;;;;4.65;3.42;;;;;;;;;;5008328;28;20245;-68
2023/09/16 10:38:36;;;;;;;4.43;2.40;;;;;;;;;;5009136;28;20300;-68
2023/09/16 10:41:02;;;;;;;3.75;2.83;;;;;;;;;;5007287;28;20187;-68
2023/09/16 10:43:28;;;;;;;4.85;3.03;;;;;;;;;;5009120;28;20205;-68
2023/09/16 10:45:53;;;;;;;5.15;2.80;;;;;;;;;;5010404;28;20262;-68
2023/09/16 10:48:18;;;;;;;4.10;2.20;;;;;;;;;;5010950;28;20174;-69
2023/09/16 10:50:44;;;;;;;5.05;2.95;;;;;;;;;;5008742;28;20223;-69
2023/09/16 10:53:15;;;;;;;6.68;2.80;;;;;;;;;;5010508;28;20190;-69
2023/09/16 10:55:48;;;;;;;5.63;2.83;;;;;;;;;;5011310;28;20195;-69
2023/09/16 10:58:36;;;;;;;6.72;2.17;;;;;;;;;;5009621;28;20632;-69
2023/09/16 11:01:02;;;;;;;3.85;2.17;;;;;;;;;;5005710;28;20188;-69
2023/09/16 11:03:29;;;;;;;4.78;2.00;;;;;;;;;;5010547;28;20574;-69
2023/09/16 11:05:57;;;;;;;4.70;2.10;;;;;;;;;;5010915;28;20550;-68
2023/09/16 11:08:23;;;;;;;2.55;2.15;;;;;;;;;;5009025;28;20186;-69
2023/09/16 11:10:48;;;;;;;2.55;1.75;;;;;;;;;;5011243;28;20175;-67
2023/09/16 11:13:13;;;;;;;2.37;1.90;;;;;;;;;;5007126;28;20185;-68
2023/09/16 11:15:40;;;;;;;4.68;2.20;;;;;;;;;;5011007;28;20427;-68
2023/09/16 11:18:09;;;;;;;3.45;2.20;;;;;;;;;;5009702;28;20269;-67
2023/09/16 11:20:36;;;;;;;4.75;2.35;;;;;;;;;;5008419;28;20200;-68
2023/09/16 11:23:04;;;;;;;2.22;2.03;;;;;;;;;;5013167;28;20182;-68
2023/09/16 11:25:33;;;;;;;3.13;2.33;;;;;;;;;;5004981;28;20647;-67
2023/09/16 11:28:00;;;;;;;2.83;2.05;;;;;;;;;;5004435;28;20195;-67
2023/09/16 11:30:25;;;;;;;2.67;1.90;;;;;;;;;;5006379;28;20572;-67
2023/09/16 11:32:53;;;;;;;2.30;2.10;;;;;;;;;;5008544;28;20194;-67
2023/09/16 11:35:18;;;;;;;3.50;2.22;;;;;;;;;;5009306;28;20692;-68
2023/09/16 11:37:44;;;;;;;2.45;1.83;;;;;;;;;;5011502;28;20195;-67
2023/09/16 11:40:10;;;;;;;3.53;2.63;;;;;;;;;;5009660;28;20203;-68
2023/09/16 11:42:36;;;;;;;4.25;2.25;;;;;;;;;;5009068;28;20179;-68
2023/09/16 11:45:01;;;;;;;2.85;1.88;;;;;;;;;;4997172;28;20571;-68
2023/09/16 11:47:31;;;;;;;9.40;5.37;;;;;;;;;;5011593;28;20183;-68
2023/09/16 11:49:56;;;;;;;3.53;1.80;;;;;;;;;;5009701;28;20422;-68
2023/09/16 11:52:21;;;;;;;2.78;2.22;;;;;;;;;;5010230;28;20175;-67
2023/09/16 11:54:47;;;;;;;3.23;2.17;;;;;;;;;;5010637;28;20685;-67
2023/09/16 11:57:12;;;;;;;1.92;1.63;;;;;;;;;;5009336;28;20444;-67
2023/09/16 11:59:38;;;;;;;3.47;1.60;;;;;;;;;;5003982;28;20258;-69
2023/09/16 12:02:03;;;;;;;2.05;1.73;;;;;;;;;;5009610;28;20178;-69
2023/09/16 12:04:30;;;;;;;2.65;1.60;;;;;;;;;;5012036;28;20818;-67
2023/09/16 12:06:55;;;;;;;2.95;1.50;;;;;;;;;;5010319;28;20186;-68
2023/09/16 12:09:22;;;;;;;2.85;1.70;;;;;;;;;;5009688;28;20179;-68
2023/09/16 12:11:49;;;;;;;2.35;1.50;;;;;;;;;;5011131;28;20212;-68
2023/09/16 12:14:15;;;;;;;2.13;1.60;;;;;;;;;;5010541;28;20196;-68
2023/09/16 12:16:40;;;;;;;5.07;2.33;;;;;;;;;;5011246;28;20553;-67
2023/09/16 12:19:05;;;;;;;2.83;1.75;;;;;;;;;;5010466;28;20178;-68
2023/09/16 12:21:30;;;;;;;2.90;1.90;;;;;;;;;;5004611;28;20171;-67
2023/09/16 12:23:56;;;;;;;2.17;1.90;;;;;;;;;;5009673;28;20638;-68
2023/09/16 12:26:21;;;;;;;2.95;1.85;;;;;;;;;;5010687;28;20171;-68
2023/09/16 12:28:46;;;;;;;2.00;1.57;;;;;;;;;;5010698;28;20642;-69
2023/09/16 12:31:12;;;;;;;2.30;1.70;;;;;;;;;;5010437;28;20409;-68
2023/09/16 12:33:38;;;;;;;2.78;1.95;;;;;;;;;;5010015;28;20891;-68
2023/09/16 12:36:04;;;;;;;2.22;1.60;;;;;;;;;;5009515;28;20654;-68
2023/09/16 12:38:30;;;;;;;3.83;1.60;;;;;;;;;;5010694;28;20248;-69
2023/09/16 12:40:55;;;;;;;2.70;2.08;;;;;;;;;;5009090;28;20175;-69
2023/09/16 12:43:20;;;;;;;4.05;1.90;;;;;;;;;;5009745;28;20664;-68
2023/09/16 12:45:46;;;;;;;6.35;2.20;;;;;;;;;;5010877;28;20194;-68
2023/09/16 12:48:11;;;;;;;2.70;2.25;;;;;;;;;;5009275;28;20186;-69
2023/09/16 12:50:37;;;;;;;3.10;2.35;;;;;;;;;;5010856;28;20229;-69
2023/09/16 12:53:02;;;;;;;2.30;2.10;;;;;;;;;;5010311;28;20179;-69
2023/09/16 12:55:27;;;;;;;2.40;2.20;;;;;;;;;;5004891;28;20546;-67
2023/09/16 12:57:53;;;;;;;3.38;2.15;;;;;;;;;;5014140;28;20681;-68
2023/09/16 13:00:22;;;;;;;4.35;2.05;;;;;;;;;;5014619;28;20166;-68
2023/09/16 13:02:47;;;;;;;2.13;1.92;;;;;;;;;;5014342;28;20179;-67
2023/09/16 13:05:17;;;;;;;3.57;1.97;;;;;;;;;;5012296;28;20221;-67
2023/09/16 13:07:44;;;;;;;4.03;2.28;;;;;;;;;;5014459;28;20455;-68
2023/09/16 13:10:09;;;;;;;2.63;2.25;;;;;;;;;;5002285;28;20231;-67
2023/09/16 13:12:35;;;;;;;3.67;2.33;;;;;;;;;;5014315;28;20260;-70
2023/09/16 13:15:01;;;;;;;6.70;5.28;;;;;;;;;;5013268;28;20308;-68
2023/09/16 13:17:26;;;;;;;5.03;3.22;;;;;;;;;;5007848;28;20295;-68
2023/09/16 13:19:51;;;;;;;3.60;3.10;;;;;;;;;;5006963;28;20174;-69
2023/09/16 13:22:18;;;;;;;4.10;3.30;;;;;;;;;;5011957;28;20428;-70
2023/09/16 13:24:45;;;;;;;4.30;3.25;;;;;;;;;;5011584;28;20194;-67
2023/09/16 13:27:15;;;;;;;5.93;2.90;;;;;;;;;;5013634;28;20183;-68
2023/09/16 13:29:40;;;;;;;5.15;3.72;;;;;;;;;;5014417;28;20584;-68
2023/09/16 13:32:06;;;;;;;5.67;3.30;;;;;;;;;;5004023;28;20310;-68
2023/09/16 13:34:38;;;;;;;4.60;3.05;;;;;;;;;;5008454;28;20547;-68
2023/09/16 13:37:03;;;;;;;5.30;4.68;;;;;;;;;;5012338;28;20206;-69
2023/09/16 13:39:39;;;;;;;4.18;3.33;;;;;;;;;;5014313;28;20174;-67
2023/09/16 13:42:04;;;;;;;3.75;3.05;;;;;;;;;;5006479;28;22005;-67
2023/09/16 13:44:29;;;;;;;3.85;3.00;;;;;;;;;;5008941;28;20249;-68
2023/09/16 13:46:55;;;;;;;2.93;2.20;;;;;;;;;;5013752;28;20201;-68
2023/09/16 13:49:20;;;;;;;4.00;2.97;;;;;;;;;;5012506;28;20182;-68
2023/09/16 13:51:45;;;;;;;6.27;3.30;;;;;;;;;;5013065;28;20503;-69
2023/09/16 13:54:10;;;;;;;4.07;3.20;;;;;;;;;;5013430;28;20779;-69
2023/09/16 13:56:37;;;;;;;3.40;2.90;;;;;;;;;;5012441;28;20170;-68
2023/09/16 13:59:02;;;;;;;3.38;3.08;;;;;;;;;;5013059;28;20293;-69
2023/09/16 14:01:27;;;;;;;5.63;3.00;;;;;;;;;;5012373;28;20245;-68
2023/09/16 14:03:53;;;;;;;3.92;2.90;;;;;;;;;;5023790;23;20229;-73
2023/09/16 14:06:18;;;;;;;3.13;2.22;;;;;;;;;;5011658;28;20186;-73
2023/09/16 14:08:43;;;;;;;3.50;3.20;;;;;;;;;;5002180;28;20210;-73
2023/09/16 14:11:08;;;;;;;4.30;3.30;;;;;;;;;;5007105;28;20617;-73
2023/09/16 14:13:34;;;;;;;3.60;2.63;;;;;;;;;;5013333;28;20404;-73
2023/09/16 14:15:59;;;;;;;3.33;2.72;;;;;;;;;;4994194;28;20184;-73
2023/09/16 14:18:25;;;;;;;4.65;2.70;;;;;;;;;;4988845;28;20214;-73
2023/09/16 14:20:50;;;;;;;2.80;2.47;;;;;;;;;;4995464;28;20168;-73
2023/09/16 14:23:15;;;;;;;5.50;2.53;;;;;;;;;;4994695;28;20186;-73